createdAt,value
2023-04-28T00:01:26.930Z,4.2
2023-04-28T00:07:48.521Z,5
2023-04-28T00:09:54.784Z,5.4
2023-04-28T00:10:59.337Z,5.2
2023-04-28T00:13:05.581Z,5.7
2023-04-28T00:15:11.827Z,4.4
2023-04-28T00:17:18.143Z,5.4
2023-04-28T00:19:27.152Z,5.3
2023-04-28T00:21:33.406Z,5
2023-04-28T00:23:39.682Z,5
2023-04-28T00:32:04.867Z,6.4
2023-04-28T00:34:13.961Z,5.9
2023-04-28T00:36:20.053Z,4.8
2023-04-28T00:38:26.323Z,6.8
2023-04-28T00:40:32.577Z,5.7
2023-04-28T00:42:38.873Z,6.3
2023-04-28T00:44:45.104Z,6.9
2023-04-28T00:46:51.356Z,5.9
2023-04-28T00:49:00.434Z,5.6
2023-04-28T00:51:06.684Z,5.3
2023-04-28T00:53:12.947Z,5.6
2023-04-28T00:55:19.224Z,7.6
2023-04-28T00:57:25.466Z,5.7
2023-04-28T00:59:31.740Z,5.2
2023-04-28T01:01:38.199Z,5
2023-04-28T01:03:47.287Z,5.8
2023-04-28T01:05:53.304Z,5
2023-04-28T01:07:59.565Z,5.3
2023-04-28T01:09:04.189Z,5.5
2023-04-28T01:11:10.476Z,5.6
2023-04-28T01:13:16.703Z,5.8
2023-04-28T01:19:38.259Z,6.1
2023-04-28T01:21:44.537Z,6.2
2023-04-28T01:23:50.789Z,5.3
2023-04-28T01:25:57.012Z,6.2
2023-04-28T01:30:09.559Z,5.2
2023-04-28T01:34:24.868Z,7.8
2023-04-28T01:36:31.126Z,6.4
2023-04-28T01:38:37.366Z,6.3
2023-04-28T01:42:49.860Z,6.7
2023-04-28T01:44:56.100Z,7
2023-04-28T01:49:11.484Z,7.9
2023-04-28T01:57:36.532Z,7.1
2023-04-28T01:59:42.803Z,7.5
2023-04-28T02:01:51.872Z,7.4
2023-04-28T02:08:30.560Z,8.8
2023-04-28T02:10:36.830Z,5.6
2023-04-28T02:12:43.094Z,6.6
2023-04-28T02:14:52.207Z,6.2
2023-04-28T02:16:58.457Z,7.1
2023-04-28T02:19:04.817Z,6.8
2023-04-28T02:21:11.170Z,6.6
2023-04-28T02:23:17.430Z,6.3
2023-04-28T02:25:23.688Z,7.8
2023-04-28T02:27:29.899Z,5.6
2023-04-28T02:31:45.477Z,6
2023-04-28T02:38:04.290Z,6.3
2023-04-28T02:40:10.512Z,6.5
2023-04-28T02:42:16.755Z,6.7
2023-04-28T02:50:44.592Z,6
2023-04-28T02:52:50.856Z,6.7
2023-04-28T02:59:12.507Z,7.2
2023-04-28T03:01:18.796Z,7.2
2023-04-28T03:03:25.246Z,6.4
2023-04-28T03:04:29.628Z,6.7
2023-04-28T03:06:35.789Z,6.4
2023-04-28T03:08:42.031Z,6.5
2023-04-28T03:10:48.406Z,6.1
2023-04-28T03:12:57.480Z,7
2023-04-28T03:27:44.049Z,6.1
2023-04-28T03:29:50.307Z,7.1
2023-04-28T03:34:02.824Z,6.3
2023-04-28T03:40:21.638Z,6.3
2023-04-28T03:42:32.200Z,5.9
2023-04-28T03:44:40.024Z,6.6
2023-04-28T03:46:46.261Z,6.9
2023-04-28T03:48:52.506Z,5.1
2023-04-28T03:50:58.799Z,5.5
2023-04-28T03:53:05.015Z,6.1
2023-04-28T03:55:11.273Z,6.4
2023-04-28T03:57:20.330Z,6
2023-04-28T03:59:26.565Z,6.1
2023-04-28T04:01:32.830Z,6.6
2023-04-28T04:02:37.500Z,6.4
2023-04-28T04:04:43.778Z,6.5
2023-04-28T04:06:49.856Z,6.7
2023-04-28T04:11:05.142Z,6.9
2023-04-28T04:13:11.418Z,7
2023-04-28T04:15:17.662Z,7.2
2023-04-28T04:17:23.907Z,5.5
2023-04-28T04:19:30.166Z,7.5
2023-04-28T04:21:36.419Z,6.4
2023-04-28T04:23:42.663Z,6.8
2023-04-28T04:27:57.985Z,6.5
2023-04-28T04:30:04.230Z,6.3
2023-04-28T04:32:10.506Z,6.5
2023-04-28T04:34:16.942Z,6.7
2023-04-28T04:36:22.996Z,7.1
2023-04-28T04:38:29.236Z,6.3
2023-04-28T04:40:38.289Z,7.3
2023-04-28T04:42:44.575Z,6.4
2023-04-28T04:44:50.811Z,6.4
2023-04-28T04:46:57.186Z,6.5
2023-04-28T04:49:03.332Z,6
2023-04-28T04:51:09.573Z,7
2023-04-28T04:53:16.573Z,6.4
2023-04-28T04:55:24.883Z,6.4
2023-04-28T04:57:31.125Z,5.3
2023-04-28T04:59:37.374Z,6
2023-04-28T05:02:48.368Z,7
2023-04-28T05:05:01.856Z,6.4
2023-04-28T05:07:00.705Z,6.4
2023-04-28T05:09:09.764Z,6.7
2023-04-28T05:11:16.001Z,5.7
2023-04-28T05:15:28.622Z,6.6
2023-04-28T05:17:34.904Z,7
2023-04-28T05:19:41.158Z,7.2
2023-04-28T05:21:47.404Z,6.4
2023-04-28T05:23:56.465Z,6.1
2023-04-28T05:28:08.979Z,6
2023-04-28T05:30:15.251Z,6.5
2023-04-28T05:34:27.773Z,6.5
2023-04-28T05:36:34.041Z,6.3
2023-04-28T05:38:43.111Z,5.9
2023-04-28T05:45:01.903Z,7.2
2023-04-28T05:47:08.147Z,7.6
2023-04-28T05:49:14.416Z,7.1
2023-04-28T06:00:02.106Z,8
2023-04-28T06:02:08.396Z,6.3
2023-04-28T06:04:14.858Z,7.4
2023-04-28T06:06:23.717Z,7.2
2023-04-28T06:08:29.929Z,6.3
2023-04-28T06:10:36.191Z,8.2
2023-04-28T06:12:42.448Z,8.2
2023-04-28T06:14:48.710Z,7.3
2023-04-28T06:16:55.004Z,7.6
2023-04-28T06:19:01.245Z,7.5
2023-04-28T06:21:10.315Z,8.6
2023-04-28T06:23:16.602Z,7.8
2023-04-28T06:25:22.825Z,8.5
2023-04-28T06:27:29.115Z,9.2
2023-04-28T06:29:35.370Z,9.2
2023-04-28T06:31:41.662Z,8.1
2023-04-28T06:35:56.963Z,9
2023-04-28T06:38:03.227Z,8.7
2023-04-28T06:42:15.750Z,8
2023-04-28T06:48:34.553Z,7.7
2023-04-28T06:50:44.063Z,9.5
2023-04-28T06:52:49.874Z,9.6
2023-04-28T07:02:19.481Z,11.2
2023-04-28T07:04:28.587Z,12.9
2023-04-28T07:06:34.764Z,13.5
2023-04-28T07:10:47.296Z,14
2023-04-28T07:12:53.520Z,14.3
2023-04-28T07:17:06.018Z,14.9
2023-04-28T07:23:27.594Z,16.7
2023-04-28T07:25:33.873Z,16.2
2023-04-28T07:29:46.395Z,16.3
2023-04-28T07:31:52.719Z,16.6
2023-04-28T07:34:01.727Z,18.2
2023-04-28T07:36:08.028Z,17.2
2023-04-28T07:40:20.565Z,17.8
2023-04-28T07:42:26.827Z,17.2
2023-04-28T07:46:39.422Z,15.8
2023-04-28T07:48:48.491Z,16.9
2023-04-28T07:50:54.769Z,16.7
2023-04-28T07:53:01.024Z,16.7
2023-04-28T07:54:05.579Z,15.4
2023-04-28T07:58:18.182Z,15.5
2023-04-28T08:00:24.443Z,15.5
2023-04-28T08:04:39.964Z,16.4
2023-04-28T08:06:46.145Z,17
2023-04-28T08:10:58.706Z,16.3
2023-04-28T08:13:05.020Z,15
2023-04-28T08:15:11.299Z,15.8
2023-04-28T08:17:20.415Z,16.8
2023-04-28T08:19:26.697Z,17.9
2023-04-28T08:21:32.968Z,17.8
2023-04-28T08:23:39.264Z,15.6
2023-04-28T08:25:45.583Z,15.9
2023-04-28T08:27:51.848Z,16.8
2023-04-28T08:29:58.172Z,15.1
2023-04-28T08:32:07.281Z,14.9
2023-04-28T08:34:16.321Z,13.1
2023-04-28T08:36:19.895Z,15.1
2023-04-28T08:38:26.149Z,16.2
2023-04-28T08:40:32.459Z,15.1
2023-04-28T08:42:38.762Z,14.9
2023-04-28T08:44:45.066Z,14.7
2023-04-28T08:46:54.200Z,16.4
2023-04-28T08:49:00.455Z,17.1
2023-04-28T08:52:11.318Z,15.4
2023-04-28T08:54:26.233Z,13.6
2023-04-28T08:56:23.899Z,15.5
2023-04-28T08:58:30.209Z,12.6
2023-04-28T09:00:39.338Z,16.9
2023-04-28T09:04:52.264Z,17.4
2023-04-28T09:06:58.310Z,17.5
2023-04-28T09:11:10.857Z,17.2
2023-04-28T09:15:26.251Z,17.5
2023-04-28T09:17:32.590Z,19.5
2023-04-28T09:19:38.847Z,17.5
2023-04-28T09:21:45.147Z,18.1
2023-04-28T09:25:57.754Z,18.9
2023-04-28T09:30:13.175Z,21.8
2023-04-28T09:34:25.749Z,18.6
2023-04-28T09:36:32.042Z,19.6
2023-04-28T09:38:38.351Z,19.1
2023-04-28T09:40:44.649Z,18.7
2023-04-28T09:42:50.974Z,18.6
2023-04-28T09:47:06.353Z,23.3
2023-04-28T09:49:14.261Z,20.8
2023-04-28T09:53:40.551Z,22.7
2023-04-28T09:55:46.848Z,18.7
2023-04-28T09:57:55.983Z,23.3
2023-04-28T10:00:02.359Z,19.6
2023-04-28T10:02:25.913Z,25
2023-04-28T10:04:15.018Z,20.9
2023-04-28T10:06:21.148Z,22.8
2023-04-28T10:08:27.656Z,22.3
2023-04-28T10:12:42.850Z,28.6
2023-04-28T10:14:49.169Z,23.4
2023-04-28T10:16:55.468Z,25.1
2023-04-28T10:19:01.774Z,26.5
2023-04-28T10:23:14.372Z,26.3
2023-04-28T10:25:20.678Z,29.2
2023-04-28T10:29:36.114Z,29.6
2023-04-28T10:33:48.740Z,27
2023-04-28T10:35:55.021Z,29.1
2023-04-28T10:38:01.323Z,30.9
2023-04-28T10:40:08.403Z,28.8
2023-04-28T10:42:16.727Z,33
2023-04-28T10:44:23.015Z,31
2023-04-28T10:46:29.355Z,28.5
2023-04-28T10:47:33.911Z,30
2023-04-28T10:49:40.184Z,30.4
2023-04-28T10:51:46.494Z,30.2
2023-04-28T11:06:33.395Z,22.3
2023-04-28T11:08:39.676Z,25.6
2023-04-28T11:29:48.303Z,25.7
2023-04-28T11:31:54.631Z,26.9
2023-04-28T11:38:13.487Z,27
2023-04-28T11:40:22.615Z,26.5
2023-04-28T11:45:39.892Z,28
2023-04-28T11:47:46.068Z,28.1
2023-04-28T11:49:52.353Z,29.2
2023-04-28T11:51:58.651Z,26.1
2023-04-28T11:54:07.789Z,25.7
2023-04-28T12:06:45.540Z,24.9
2023-04-28T12:11:00.968Z,26.9
2023-04-28T12:13:07.253Z,24.2
2023-04-28T12:15:13.552Z,22.9
2023-04-28T12:17:19.834Z,25.5
2023-04-28T12:23:41.542Z,21.1
2023-04-28T12:30:00.407Z,18.3
2023-04-28T12:32:06.748Z,19
2023-04-28T12:34:13.026Z,17.2
2023-04-28T12:36:19.314Z,15.8
2023-04-28T12:43:45.588Z,13.4
2023-04-28T12:45:51.907Z,12.5
2023-04-28T12:47:58.269Z,13.1
2023-04-28T12:50:04.544Z,11.7
2023-04-28T13:00:38.803Z,12
2023-04-28T13:09:06.829Z,13.2
2023-04-28T13:19:38.310Z,11
2023-04-28T13:21:47.408Z,9.6
2023-04-28T13:23:53.727Z,9.5
2023-04-28T13:26:00.014Z,11.2
2023-04-28T13:28:06.314Z,8.5
2023-04-28T13:30:12.577Z,9.6
2023-04-28T13:32:18.905Z,9.9
2023-04-28T13:34:25.168Z,8.4
2023-04-28T13:38:40.597Z,8.3
2023-04-28T13:45:14.839Z,7.7
2023-04-28T13:47:19.786Z,8.6
2023-04-28T13:51:35.191Z,8.7
2023-04-28T13:53:41.491Z,8.1
2023-04-28T13:55:49.483Z,6.9
2023-04-28T13:57:54.086Z,8.4
2023-04-28T14:00:00.404Z,8.3
2023-04-28T14:04:15.973Z,8.5
2023-04-28T14:06:22.111Z,8
2023-04-28T14:08:28.379Z,7.8
2023-04-28T14:10:34.681Z,7.6
2023-04-28T14:29:34.193Z,6.3
2023-04-28T14:31:40.608Z,6.4
2023-04-28T14:35:55.897Z,7.6
2023-04-28T14:38:02.189Z,6.9
2023-04-28T14:39:06.753Z,6.7
2023-04-28T14:41:13.035Z,6.3
2023-04-28T14:43:19.352Z,6.7
2023-04-28T14:45:25.610Z,6.6
2023-04-28T14:47:34.787Z,6.9
2023-04-28T14:49:41.039Z,7.3
2023-04-28T14:58:06.258Z,6.9
2023-04-28T15:00:12.479Z,7.2
2023-04-28T15:02:21.708Z,7.2
2023-04-28T15:06:34.212Z,8.1
2023-04-28T15:10:46.771Z,7.7
2023-04-28T15:14:59.386Z,7.4
2023-04-28T15:23:27.396Z,6.1
2023-04-28T15:25:33.692Z,4.2
2023-04-28T15:29:46.271Z,4.5
2023-04-28T15:36:07.975Z,4.6
2023-04-28T15:37:12.538Z,6
2023-04-28T15:39:18.811Z,5.9
2023-04-28T15:41:25.116Z,5
2023-04-28T15:43:31.411Z,5.6
2023-04-28T15:45:40.540Z,6.7
2023-04-28T15:47:46.919Z,6.3
2023-04-28T15:49:53.100Z,7.7
2023-04-28T15:52:00.977Z,8.5
2023-04-28T15:54:07.224Z,9.1
2023-04-28T15:58:19.805Z,8.1
2023-04-28T16:00:28.895Z,10.4
2023-04-28T16:02:35.468Z,9.7
2023-04-28T16:06:47.788Z,11.2
2023-04-28T16:08:54.081Z,12.7
2023-04-28T16:11:00.352Z,11.1
2023-04-28T16:13:06.656Z,11.6
2023-04-28T16:15:15.761Z,11.4
2023-04-28T16:17:22.036Z,13.3
2023-04-28T16:19:28.351Z,12.4
2023-04-28T16:21:34.666Z,13.9
2023-04-28T16:23:40.907Z,11
2023-04-28T16:25:47.209Z,12.2
2023-04-28T16:27:53.557Z,14.1
2023-04-28T16:30:02.588Z,14.5
2023-04-28T16:32:08.941Z,14.2
2023-04-28T16:34:15.173Z,14
2023-04-28T16:35:19.720Z,13.9
2023-04-28T16:37:26.023Z,12.6
2023-04-28T16:39:32.296Z,13.9
2023-04-28T16:41:38.610Z,13.8
2023-04-28T16:45:53.998Z,14.1
2023-04-28T16:48:00.295Z,14.2
2023-04-28T16:50:06.551Z,11.7
2023-04-28T16:52:12.857Z,12.2
2023-04-28T16:54:19.368Z,10.4
2023-04-28T16:56:25.444Z,10.9
2023-04-28T17:00:40.836Z,13.4
2023-04-28T17:02:47.345Z,12.8
2023-04-28T17:04:53.425Z,13.2
2023-04-28T17:06:59.701Z,12.7
2023-04-28T17:11:12.290Z,12.5
2023-04-28T17:13:21.420Z,13.9
2023-04-28T17:15:27.710Z,14.1
2023-04-28T17:17:34.010Z,12.5
2023-04-28T17:19:40.276Z,12.6
2023-04-28T17:21:46.594Z,12.6
2023-04-28T17:32:20.867Z,15.4
2023-04-28T17:36:52.384Z,15.5
2023-04-28T17:38:58.656Z,14.4
2023-04-28T17:41:07.799Z,16
2023-04-28T17:45:20.367Z,15.7
2023-04-28T17:49:32.962Z,14.5
2023-04-28T17:53:45.534Z,14.5
2023-04-28T17:55:54.654Z,14.1
2023-04-28T18:00:07.209Z,15.1
2023-04-28T18:02:13.571Z,14.2
2023-04-28T18:04:19.855Z,13
2023-04-28T18:06:26.096Z,10.7
2023-04-28T18:08:32.371Z,11.2
2023-04-28T18:10:41.463Z,12.9
2023-04-28T18:12:47.760Z,13.7
2023-04-28T18:14:54.033Z,13.2
2023-04-28T18:17:00.344Z,14.1
2023-04-28T18:19:06.628Z,11
2023-04-28T18:21:12.889Z,12.5
2023-04-28T18:25:28.294Z,14.3
2023-04-28T18:27:34.591Z,14
2023-04-28T18:30:45.437Z,13.4
2023-04-28T18:32:51.762Z,13
2023-04-28T18:34:57.996Z,11.3
2023-04-28T18:37:04.287Z,13.9
2023-04-28T18:39:13.412Z,15.5
2023-04-28T18:41:19.680Z,16
2023-04-28T18:45:32.353Z,16.1
2023-04-28T18:49:44.813Z,15.2
2023-04-28T18:51:51.086Z,16.8
2023-04-28T18:54:00.195Z,16.9
2023-04-28T18:56:06.490Z,16.3
2023-04-28T18:58:12.755Z,17.2
2023-04-28T19:00:19.058Z,17.1
2023-04-28T19:02:25.438Z,15.9
2023-04-28T19:04:31.750Z,15.9
2023-04-28T19:10:53.284Z,16.7
2023-04-28T19:12:59.568Z,16.5
2023-04-28T19:15:05.848Z,15.8
2023-04-28T19:17:12.200Z,17.4
2023-04-28T19:19:18.426Z,16.5
2023-04-28T19:23:33.846Z,16.5
2023-04-28T19:25:40.153Z,17.7
2023-04-28T19:27:46.379Z,18.1
2023-04-28T19:28:50.923Z,17.1
2023-04-28T19:30:57.249Z,16.9
2023-04-28T19:33:03.545Z,16.1
2023-04-28T19:35:09.807Z,15.2
2023-04-28T19:37:18.888Z,14.3
2023-04-28T19:39:25.996Z,16.6
2023-04-28T19:41:31.472Z,16.4
2023-04-28T19:43:37.781Z,16.4
2023-04-28T19:45:44.095Z,18.2
2023-04-28T19:47:50.401Z,19
2023-04-28T19:49:56.599Z,19.3
2023-04-28T19:52:05.737Z,18.6
2023-04-28T19:54:12.011Z,15.5
2023-04-28T19:56:18.299Z,20.8
2023-04-28T20:00:32.440Z,19.1
2023-04-28T20:02:37.287Z,17.3
2023-04-28T20:04:43.739Z,20.7
2023-04-28T20:06:52.635Z,20.2
2023-04-28T20:11:05.176Z,20.1
2023-04-28T20:15:17.737Z,23.7
2023-04-28T20:19:30.294Z,23.7
2023-04-28T20:23:45.690Z,20.9
2023-04-28T20:25:51.997Z,25.3
2023-04-28T20:31:09.168Z,25.1
2023-04-28T20:33:15.383Z,28.2
2023-04-28T20:35:24.476Z,30.5
2023-04-28T20:37:30.772Z,30.6
2023-04-28T20:41:43.343Z,28.9
2023-04-28T20:43:49.607Z,30.9
2023-04-28T20:48:02.236Z,30.9
2023-04-28T20:54:23.840Z,29.1
2023-04-28T20:58:36.414Z,33.7
2023-04-28T21:04:58.088Z,36.5
2023-04-28T21:07:04.440Z,36.2
2023-04-28T21:09:10.679Z,28.3
2023-04-28T21:11:16.966Z,28.4
2023-04-28T21:13:23.267Z,32.9
2023-04-28T21:15:29.542Z,30.7
2023-04-28T21:26:23.513Z,30
2023-04-28T21:30:36.048Z,30.7
2023-04-28T21:32:45.185Z,32
2023-04-28T21:34:51.422Z,30.5
2023-04-28T21:36:57.708Z,25.5
2023-04-28T21:41:10.259Z,30
2023-04-28T21:45:22.807Z,28.6
2023-04-28T21:47:31.956Z,30.2
2023-04-28T21:51:44.431Z,28.2
2023-04-28T21:53:50.732Z,29.8
2023-04-28T21:55:58.612Z,32.1
2023-04-28T21:58:04.826Z,33.3
2023-04-28T22:02:20.329Z,29.1
2023-04-28T22:04:26.677Z,30.7
2023-04-28T22:06:32.738Z,31.5
2023-04-28T22:10:45.259Z,29.8
2023-04-28T22:12:51.523Z,27.9
2023-04-28T22:14:57.799Z,31.2
2023-04-28T22:19:13.175Z,30.3
2023-04-28T22:26:36.477Z,31.6
2023-04-28T22:32:58.188Z,30.4
2023-04-28T22:39:16.892Z,29.4
2023-04-28T22:43:29.446Z,26.6
2023-04-28T22:49:51.352Z,25.6
2023-04-28T22:54:03.575Z,28.2
2023-04-28T22:56:09.849Z,28.7
2023-04-28T23:00:25.199Z,27.2
2023-04-28T23:02:31.546Z,25.9
2023-04-28T23:04:37.971Z,27.8
2023-04-28T23:06:43.976Z,27.4
2023-04-28T23:08:50.234Z,27.4
2023-04-28T23:13:02.794Z,24
2023-04-28T23:17:18.133Z,27.6
2023-04-28T23:19:24.379Z,28.9
2023-04-28T23:20:28.908Z,27.4
2023-04-28T23:28:56.761Z,28
2023-04-28T23:31:03.041Z,29.1
2023-04-28T23:33:09.276Z,29.7
2023-04-28T23:35:15.558Z,31.2
2023-04-28T23:37:21.825Z,30.4
2023-04-28T23:43:43.403Z,33.7
2023-04-28T23:45:49.747Z,35.1
2023-04-28T23:47:55.957Z,33.1
2023-04-28T23:50:02.175Z,30.2
2023-04-28T23:52:08.418Z,32
2023-04-28T23:56:20.942Z,35.7
